createdAt,value
2023-05-02T00:02:06.665Z,70.00
2023-05-02T00:07:09.028Z,70.00
2023-05-02T00:12:11.289Z,69.90
2023-05-02T00:17:20.564Z,69.50
2023-05-02T00:22:23.048Z,69.60
2023-05-02T00:27:25.468Z,69.60
2023-05-02T00:32:28.255Z,70.10
2023-05-02T00:37:31.226Z,70.40
2023-05-02T00:42:36.094Z,70.60
2023-05-02T00:47:38.822Z,70.50
2023-05-02T00:52:41.800Z,71.20
2023-05-02T00:57:44.288Z,71.40
2023-05-02T01:02:58.664Z,71.90
2023-05-02T01:08:05.088Z,72.20
2023-05-02T01:13:17.360Z,73.70
2023-05-02T01:18:23.995Z,73.10
2023-05-02T01:23:38.782Z,73.00
2023-05-02T01:29:02.226Z,73.10
2023-05-02T01:34:08.105Z,73.70
2023-05-02T01:39:13.839Z,74.30
2023-05-02T01:44:17.278Z,75.30
2023-05-02T01:49:21.007Z,76.00
2023-05-02T01:54:25.849Z,76.00
2023-05-02T01:59:30.118Z,76.50
2023-05-02T02:04:35.171Z,77.10
2023-05-02T02:09:37.567Z,77.10
2023-05-02T02:14:44.029Z,76.80
2023-05-02T02:19:46.424Z,78.20
2023-05-02T02:24:49.239Z,79.00
2023-05-02T02:29:51.554Z,79.80
2023-05-02T02:34:55.313Z,81.50
2023-05-02T02:39:57.827Z,81.50
2023-05-02T02:45:27.144Z,80.30
2023-05-02T02:50:47.173Z,81.00
2023-05-02T02:56:03.197Z,83.00
2023-05-02T03:01:08.706Z,84.20
2023-05-02T03:06:12.123Z,84.40
2023-05-02T03:11:14.469Z,84.00
2023-05-02T03:16:32.590Z,84.10
2023-05-02T03:21:36.327Z,85.60
2023-05-02T03:26:47.669Z,85.20
2023-05-02T03:31:51.875Z,85.60
2023-05-02T03:36:56.056Z,85.30
2023-05-02T03:41:58.825Z,85.50
2023-05-02T03:47:01.249Z,86.90
2023-05-02T03:52:05.406Z,88.00
2023-05-02T03:57:10.037Z,88.00
2023-05-02T04:02:12.678Z,90.10
2023-05-02T04:07:19.622Z,90.40
2023-05-02T04:12:26.660Z,92.50
2023-05-02T04:17:29.902Z,95.20
2023-05-02T04:22:33.332Z,97.70
2023-05-02T04:27:39.408Z,99.90
2023-05-02T04:32:45.239Z,99.90
2023-05-02T04:37:47.976Z,99.90
2023-05-02T04:42:52.334Z,99.90
2023-05-02T04:47:57.835Z,99.90
2023-05-02T04:53:00.394Z,99.90
2023-05-02T04:58:04.506Z,99.90
2023-05-02T05:03:08.379Z,99.90
2023-05-02T05:08:11.681Z,99.90
2023-05-02T05:13:14.345Z,99.90
2023-05-02T05:18:18.780Z,99.90
2023-05-02T05:23:21.150Z,99.90
2023-05-02T05:28:23.558Z,99.90
2023-05-02T05:33:26.376Z,99.90
2023-05-02T05:38:29.279Z,99.90
2023-05-02T05:43:32.514Z,99.90
2023-05-02T05:48:35.696Z,99.90
2023-05-02T05:53:38.132Z,99.90
2023-05-02T05:58:44.201Z,99.90
2023-05-02T06:03:48.965Z,99.90
2023-05-02T06:08:52.929Z,99.90
2023-05-02T06:13:56.326Z,99.90
2023-05-02T06:18:59.250Z,99.90
2023-05-02T06:24:01.611Z,99.90
2023-05-02T06:29:03.849Z,99.90
2023-05-02T06:34:06.090Z,99.90
2023-05-02T06:39:08.316Z,99.90
2023-05-02T06:44:10.894Z,99.90
2023-05-02T06:49:13.178Z,99.90
2023-05-02T06:54:16.909Z,99.90
2023-05-02T06:59:19.219Z,98.10
2023-05-02T07:04:22.896Z,98.20
2023-05-02T07:09:25.294Z,96.90
2023-05-02T07:14:27.540Z,95.10
2023-05-02T07:19:30.006Z,93.00
2023-05-02T07:24:32.234Z,89.90
2023-05-02T07:29:34.481Z,79.20
2023-05-02T07:34:36.812Z,81.70
2023-05-02T07:39:39.098Z,83.70
2023-05-02T07:44:41.872Z,84.40
2023-05-02T07:49:44.147Z,81.70
2023-05-02T07:54:48.419Z,80.10
2023-05-02T07:59:51.080Z,80.60
2023-05-02T08:04:54.072Z,79.00
2023-05-02T08:09:56.444Z,79.10
2023-05-02T08:14:58.814Z,77.40
2023-05-02T08:20:04.264Z,77.60
2023-05-02T08:25:07.261Z,77.20
2023-05-02T08:30:09.765Z,73.40
2023-05-02T08:35:12.162Z,71.50
2023-05-02T08:40:15.039Z,70.50
2023-05-02T08:45:18.638Z,69.50
2023-05-02T08:50:21.640Z,70.40
2023-05-02T08:55:27.833Z,67.50
2023-05-02T09:00:30.395Z,67.50
2023-05-02T09:05:40.978Z,68.00
2023-05-02T09:10:45.891Z,67.60
2023-05-02T09:16:12.467Z,68.10
2023-05-02T09:21:18.040Z,67.90
2023-05-02T09:26:31.871Z,68.00
2023-05-02T09:36:45.081Z,66.90
2023-05-02T09:41:49.599Z,63.80
2023-05-02T09:46:57.439Z,62.80
2023-05-02T09:52:14.357Z,58.40
2023-05-02T09:57:16.719Z,57.00
2023-05-02T10:02:21.677Z,56.70
2023-05-02T10:07:25.008Z,56.20
2023-05-02T10:12:30.699Z,52.60
2023-05-02T10:17:44.895Z,51.40
2023-05-02T10:22:49.685Z,52.20
2023-05-02T10:27:53.046Z,52.30
2023-05-02T10:32:59.720Z,50.90
2023-05-02T10:38:02.367Z,49.60
2023-05-02T10:43:05.367Z,48.90
2023-05-02T10:48:22.817Z,48.10
2023-05-02T10:53:32.403Z,48.50
2023-05-02T10:58:34.944Z,47.90
2023-05-02T11:03:58.244Z,47.80
2023-05-02T11:09:18.870Z,47.40
2023-05-02T11:14:29.700Z,47.20
2023-05-02T11:19:37.896Z,47.70
2023-05-02T11:24:44.806Z,47.60
2023-05-02T11:29:56.524Z,45.60
2023-05-02T11:34:59.546Z,44.80
2023-05-02T11:40:15.079Z,44.10
2023-05-02T11:45:18.628Z,41.50
2023-05-02T11:50:21.382Z,43.30
2023-05-02T11:55:24.039Z,41.60
2023-05-02T12:00:29.497Z,41.00
2023-05-02T12:05:32.528Z,42.80
2023-05-02T12:10:37.266Z,41.60
2023-05-02T12:15:39.774Z,40.80
2023-05-02T12:20:42.881Z,41.30
2023-05-02T12:25:45.213Z,41.10
2023-05-02T12:30:49.604Z,42.00
2023-05-02T12:35:53.920Z,43.90
2023-05-02T12:40:59.268Z,44.80
2023-05-02T12:46:10.930Z,44.90
2023-05-02T12:51:24.566Z,46.00
2023-05-02T12:56:32.843Z,47.00
2023-05-02T13:01:35.708Z,46.00
2023-05-02T13:06:38.513Z,45.30
2023-05-02T13:11:40.833Z,45.20
2023-05-02T13:16:43.236Z,45.70
2023-05-02T13:21:45.715Z,48.10
2023-05-02T13:26:47.996Z,50.50
2023-05-02T13:31:50.333Z,51.40
2023-05-02T13:36:52.675Z,48.80
2023-05-02T13:41:55.034Z,46.80
2023-05-02T13:46:57.432Z,47.00
2023-05-02T13:52:00.021Z,46.60
2023-05-02T13:57:02.688Z,46.70
2023-05-02T14:02:05.108Z,47.80
2023-05-02T14:07:07.430Z,47.80
2023-05-02T14:12:10.311Z,47.20
2023-05-02T14:17:12.838Z,46.60
2023-05-02T14:22:15.900Z,45.90
2023-05-02T14:27:18.502Z,47.20
2023-05-02T14:32:21.679Z,48.70
2023-05-02T14:37:23.995Z,47.80
2023-05-02T14:42:26.366Z,45.90
2023-05-02T14:47:31.155Z,43.20
2023-05-02T14:52:34.032Z,41.90
2023-05-02T14:57:36.398Z,40.50
2023-05-02T15:02:38.924Z,40.10
2023-05-02T15:07:41.289Z,38.20
2023-05-02T15:12:43.693Z,39.10
2023-05-02T15:17:46.097Z,40.40
2023-05-02T15:22:48.412Z,42.30
2023-05-02T15:27:50.671Z,43.70
2023-05-02T15:32:52.996Z,45.90
2023-05-02T15:37:55.762Z,46.90
2023-05-02T15:42:58.147Z,47.50
2023-05-02T15:48:01.097Z,47.60
2023-05-02T15:53:03.994Z,47.90
2023-05-02T15:58:06.673Z,48.50
2023-05-02T16:03:09.191Z,49.60
2023-05-02T16:08:11.676Z,49.20
2023-05-02T16:13:13.938Z,51.10
2023-05-02T16:18:16.549Z,52.10
2023-05-02T16:23:19.007Z,51.70
2023-05-02T16:28:21.293Z,45.50
2023-05-02T16:33:23.602Z,43.40
2023-05-02T16:38:25.840Z,44.40
2023-05-02T16:43:28.136Z,46.70
2023-05-02T16:48:30.789Z,48.90
2023-05-02T16:53:33.484Z,50.60
2023-05-02T16:58:35.740Z,52.20
2023-05-02T17:03:40.427Z,53.30
2023-05-02T17:08:42.708Z,54.50
2023-05-02T17:13:47.235Z,55.60
2023-05-02T17:18:49.512Z,56.00
2023-05-02T17:23:51.820Z,56.80
2023-05-02T17:28:54.148Z,57.20
2023-05-02T17:33:56.466Z,57.90
2023-05-02T17:38:59.155Z,57.70
2023-05-02T17:44:01.607Z,58.00
2023-05-02T17:49:04.553Z,58.80
2023-05-02T17:54:06.830Z,59.30
2023-05-02T17:59:11.699Z,58.80
2023-05-02T18:04:14.923Z,59.00
2023-05-02T18:09:17.410Z,59.30
2023-05-02T18:14:19.835Z,59.90
2023-05-02T18:19:23.274Z,61.50
2023-05-02T18:24:25.908Z,61.40
2023-05-02T18:29:28.372Z,62.20
2023-05-02T18:34:36.257Z,62.90
2023-05-02T18:39:40.650Z,64.00
2023-05-02T18:44:42.918Z,64.60
2023-05-02T18:49:45.171Z,64.90
2023-05-02T18:54:48.053Z,65.60
2023-05-02T18:59:50.334Z,65.90
2023-05-02T19:04:52.679Z,66.40
2023-05-02T19:09:54.991Z,66.60
2023-05-02T19:14:57.415Z,66.10
2023-05-02T19:19:59.758Z,66.00
2023-05-02T19:25:02.331Z,65.70
2023-05-02T19:30:09.185Z,65.90
2023-05-02T19:35:11.633Z,66.20
2023-05-02T19:40:14.071Z,65.60
2023-05-02T19:45:16.469Z,66.00
2023-05-02T19:50:18.858Z,65.70
2023-05-02T19:55:21.844Z,65.50
2023-05-02T20:00:24.173Z,64.80
2023-05-02T20:05:26.525Z,65.10
2023-05-02T20:10:29.029Z,65.80
2023-05-02T20:15:31.485Z,66.40
2023-05-02T20:20:33.741Z,67.10
2023-05-02T20:25:36.008Z,67.40
2023-05-02T20:30:42.045Z,67.40
2023-05-02T20:35:45.182Z,67.60
2023-05-02T20:40:47.536Z,68.10
2023-05-02T20:45:49.927Z,68.60
2023-05-02T20:50:54.374Z,69.60
2023-05-02T20:55:57.223Z,70.10
2023-05-02T21:00:59.991Z,70.60
2023-05-02T21:06:02.361Z,70.60
2023-05-02T21:11:15.467Z,70.70
2023-05-02T21:16:19.110Z,71.10
2023-05-02T21:21:22.532Z,70.90
2023-05-02T21:26:25.864Z,69.60
2023-05-02T21:31:28.666Z,68.80
2023-05-02T21:36:31.397Z,67.50
2023-05-02T21:41:33.691Z,66.90
2023-05-02T21:46:36.211Z,65.50
2023-05-02T21:51:40.605Z,64.60
2023-05-02T21:56:43.487Z,63.70
2023-05-02T22:01:45.765Z,63.60
2023-05-02T22:06:52.663Z,63.50
2023-05-02T22:11:55.227Z,63.30
2023-05-02T22:16:57.575Z,63.40
2023-05-02T22:22:03.938Z,63.70
2023-05-02T22:27:07.487Z,64.00
2023-05-02T22:32:09.955Z,64.50
2023-05-02T22:37:12.554Z,63.80
2023-05-02T22:42:14.781Z,63.70
2023-05-02T22:47:17.652Z,63.90
2023-05-02T22:52:20.710Z,64.60
2023-05-02T22:57:24.445Z,64.70
2023-05-02T23:02:26.847Z,65.10
2023-05-02T23:07:29.162Z,64.90
2023-05-02T23:12:31.553Z,64.90
2023-05-02T23:17:37.184Z,64.80
2023-05-02T23:22:46.473Z,65.50
2023-05-02T23:27:48.840Z,66.50
2023-05-02T23:32:51.680Z,65.70
2023-05-02T23:37:54.145Z,65.70
2023-05-02T23:42:56.405Z,65.40
2023-05-02T23:47:58.796Z,64.90
2023-05-02T23:53:01.460Z,65.50
2023-05-02T23:58:04.356Z,65.10
